createdAt,value
2022-09-12T00:01:36.214Z,98072.63
2022-09-12T00:04:02.590Z,98062.16
2022-09-12T00:06:28.860Z,98057.06
2022-09-12T00:08:55.122Z,98061.63
2022-09-12T00:11:21.405Z,98060.22
2022-09-12T00:13:47.839Z,98055.13
2022-09-12T00:16:14.279Z,98058.84
2022-09-12T00:18:40.721Z,98051.06
2022-09-12T00:21:07.072Z,98046.22
2022-09-12T00:23:33.387Z,98038.47
2022-09-12T00:25:59.636Z,98043.25
2022-09-12T00:28:25.882Z,98045.34
2022-09-12T00:30:52.273Z,98039.44
2022-09-12T00:33:19.108Z,98039.91
2022-09-12T00:35:45.596Z,98040.97
2022-09-12T00:38:12.013Z,98043.63
2022-09-12T00:40:38.320Z,98040.41
2022-09-12T00:43:04.869Z,98042.50
2022-09-12T00:45:31.296Z,98040.09
2022-09-12T00:47:57.686Z,98038.69
2022-09-12T00:50:24.122Z,98045.94
2022-09-12T00:52:50.866Z,98036.28
2022-09-12T00:55:17.425Z,98042.69
2022-09-12T00:57:43.800Z,98037.59
2022-09-12T01:00:10.526Z,98029.78
2022-09-12T01:02:36.848Z,98034.34
2022-09-12T01:05:03.287Z,98029.00
2022-09-12T01:07:29.617Z,98033.53
2022-09-12T01:09:56.183Z,98028.44
2022-09-12T01:12:22.669Z,98026.81
2022-09-12T01:14:48.991Z,98024.63
2022-09-12T01:17:15.269Z,98020.59
2022-09-12T01:19:42.327Z,98020.03
2022-09-12T01:22:08.776Z,98024.56
2022-09-12T01:24:35.790Z,98015.19
2022-09-12T01:27:02.778Z,98008.47
2022-09-12T01:29:29.152Z,98010.31
2022-09-12T01:31:55.827Z,98005.22
2022-09-12T01:34:22.540Z,98010.00
2022-09-12T01:36:48.881Z,98012.91
2022-09-12T01:39:15.188Z,98016.66
2022-09-12T01:41:41.909Z,98008.06
2022-09-12T01:44:08.265Z,98013.66
2022-09-12T01:46:41.050Z,98019.25
2022-09-12T01:49:07.406Z,98016.00
2022-09-12T01:51:33.665Z,98016.25
2022-09-12T01:54:00.172Z,98019.97
2022-09-12T01:56:26.666Z,98012.44
2022-09-12T01:58:52.936Z,98010.03
2022-09-12T02:01:19.432Z,98006.78
2022-09-12T02:03:45.775Z,98001.69
2022-09-12T02:06:12.090Z,98009.13
2022-09-12T02:08:38.422Z,98006.69
2022-09-12T02:11:04.962Z,98009.63
2022-09-12T02:13:31.229Z,97999.19
2022-09-12T02:15:58.088Z,98001.28
2022-09-12T02:18:25.137Z,98004.19
2022-09-12T02:20:51.926Z,97997.47
2022-09-12T02:23:18.262Z,98004.66
2022-09-12T02:25:44.839Z,97993.41
2022-09-12T02:28:11.105Z,97994.47
2022-09-12T02:30:37.705Z,97995.75
2022-09-12T02:33:04.061Z,97988.00
2022-09-12T02:35:30.345Z,97979.44
2022-09-12T02:37:56.655Z,97982.34
2022-09-12T02:40:22.945Z,97986.06
2022-09-12T02:42:49.393Z,97984.44
2022-09-12T02:45:15.652Z,97980.41
2022-09-12T02:47:42.916Z,97969.97
2022-09-12T02:50:09.204Z,97971.03
2022-09-12T02:52:35.982Z,97971.22
2022-09-12T02:55:02.448Z,97968.56
2022-09-12T02:57:28.739Z,97974.16
2022-09-12T02:59:55.117Z,97974.38
2022-09-12T03:02:21.797Z,97981.81
2022-09-12T03:04:48.376Z,97981.00
2022-09-12T03:07:14.743Z,97970.56
2022-09-12T03:09:41.056Z,97974.88
2022-09-12T03:12:07.496Z,97973.25
2022-09-12T03:14:33.842Z,97966.31
2022-09-12T03:17:00.551Z,97974.31
2022-09-12T03:19:27.049Z,97970.00
2022-09-12T03:21:53.479Z,97965.75
2022-09-12T03:24:20.131Z,97970.50
2022-09-12T03:26:46.515Z,97963.56
2022-09-12T03:29:13.653Z,97967.50
2022-09-12T03:31:40.129Z,97966.94
2022-09-12T03:34:06.477Z,97969.84
2022-09-12T03:36:32.763Z,97970.34
2022-09-12T03:38:59.152Z,97972.44
2022-09-12T03:41:25.464Z,97959.34
2022-09-12T03:43:54.816Z,97967.56
2022-09-12T03:46:21.143Z,97972.34
2022-09-12T03:48:48.247Z,97964.59
2022-09-12T03:51:14.755Z,97968.28
2022-09-12T03:53:41.262Z,97972.25
2022-09-12T03:56:07.539Z,97969.00
2022-09-12T03:58:34.089Z,97978.06
2022-09-12T04:01:00.548Z,97971.09
2022-09-12T04:03:26.815Z,97982.00
2022-09-12T04:05:53.317Z,97981.44
2022-09-12T04:08:19.602Z,97966.75
2022-09-12T04:10:46.984Z,97976.84
2022-09-12T04:13:13.350Z,97974.41
2022-09-12T04:15:39.737Z,97977.28
2022-09-12T04:18:06.321Z,97985.78
2022-09-12T04:20:34.017Z,97968.16
2022-09-12T04:23:00.346Z,97970.25
2022-09-12T04:25:27.132Z,97972.34
2022-09-12T04:27:53.430Z,97976.06
2022-09-12T04:30:19.737Z,97977.09
2022-09-12T04:32:46.016Z,97984.53
2022-09-12T04:35:12.381Z,97981.06
2022-09-12T04:37:38.758Z,97981.31
2022-09-12T04:40:05.151Z,97983.16
2022-09-12T04:42:31.740Z,97983.16
2022-09-12T04:44:58.076Z,97979.91
2022-09-12T04:47:24.403Z,97983.66
2022-09-12T04:49:50.703Z,97987.34
2022-09-12T04:52:17.039Z,97984.91
2022-09-12T04:54:43.556Z,97983.31
2022-09-12T04:57:09.869Z,97987.81
2022-09-12T04:59:36.124Z,97983.31
2022-09-12T05:02:02.553Z,97984.09
2022-09-12T05:04:28.925Z,97978.75
2022-09-12T05:06:55.265Z,97980.66
2022-09-12T05:09:21.653Z,97983.84
2022-09-12T05:12:05.222Z,97988.50
2022-09-12T05:14:31.954Z,97992.06
2022-09-12T05:16:58.294Z,97994.00
2022-09-12T05:19:24.543Z,97994.09
2022-09-12T05:21:50.864Z,97995.00
2022-09-12T05:24:17.223Z,97994.28
2022-09-12T05:26:43.607Z,97984.53
2022-09-12T05:29:09.990Z,97986.81
2022-09-12T05:31:36.320Z,97992.00
2022-09-12T05:34:03.254Z,97992.41
2022-09-12T05:36:29.644Z,97994.91
2022-09-12T05:38:56.207Z,97991.91
2022-09-12T05:41:24.975Z,97986.41
2022-09-12T05:43:51.509Z,97996.66
2022-09-12T05:46:17.856Z,97992.28
2022-09-12T05:48:44.254Z,97995.34
2022-09-12T05:51:10.786Z,97996.06
2022-09-12T05:53:37.052Z,97997.03
2022-09-12T05:56:03.369Z,98004.97
2022-09-12T05:58:29.614Z,98009.38
2022-09-12T06:00:59.395Z,98010.13
2022-09-12T06:03:26.282Z,98008.16
2022-09-12T06:05:52.634Z,98003.25
2022-09-12T06:08:18.959Z,98010.09
2022-09-12T06:10:45.465Z,98010.25
2022-09-12T06:13:11.804Z,98005.63
2022-09-12T06:18:28.534Z,98010.19
2022-09-12T06:20:54.917Z,98000.66
2022-09-12T06:23:21.210Z,98003.41
2022-09-12T06:25:47.530Z,98003.50
2022-09-12T06:28:14.211Z,97997.41
2022-09-12T06:30:40.593Z,98004.47
2022-09-12T06:33:06.864Z,97999.44
2022-09-12T06:35:33.173Z,98001.63
2022-09-12T06:37:59.494Z,98006.31
2022-09-12T06:40:25.787Z,98003.91
2022-09-12T06:42:52.223Z,98008.47
2022-09-12T06:45:18.510Z,98010.75
2022-09-12T06:47:44.774Z,98010.28
2022-09-12T06:50:11.354Z,98016.53
2022-09-12T06:52:37.621Z,98011.81
2022-09-12T06:55:04.131Z,98013.97
2022-09-12T06:57:30.486Z,98014.53
2022-09-12T06:59:56.801Z,98010.28
2022-09-12T07:02:23.249Z,98007.59
2022-09-12T07:04:49.614Z,98006.00
2022-09-12T07:07:16.356Z,98013.00
2022-09-12T07:09:42.567Z,98011.13
2022-09-12T07:12:08.821Z,98001.75
2022-09-12T07:14:35.111Z,98012.00
2022-09-12T07:17:01.614Z,98001.78
2022-09-12T07:19:28.366Z,98008.75
2022-09-12T07:21:58.497Z,98011.97
2022-09-12T07:24:25.181Z,98006.31
2022-09-12T07:26:51.482Z,98003.88
2022-09-12T07:29:37.054Z,97997.41
2022-09-12T07:32:03.742Z,98005.19
2022-09-12T07:34:30.002Z,97998.69
2022-09-12T07:36:56.311Z,97996.22
2022-09-12T07:39:22.564Z,97998.81
2022-09-12T07:41:49.309Z,97997.69
2022-09-12T07:44:15.647Z,97996.53
2022-09-12T07:46:43.380Z,97997.53
2022-09-12T07:49:09.648Z,98004.91
2022-09-12T07:51:35.889Z,98002.22
2022-09-12T07:54:02.187Z,98018.06
2022-09-12T07:56:31.070Z,98016.06
2022-09-12T07:58:58.512Z,98016.78
2022-09-12T08:01:24.850Z,98034.69
2022-09-12T08:03:51.210Z,98043.69
2022-09-12T08:06:17.482Z,98054.09
2022-09-12T08:08:43.738Z,98058.25
2022-09-12T08:11:10.300Z,98071.28
2022-09-12T08:13:36.593Z,98070.59
2022-09-12T08:16:03.528Z,98080.41
2022-09-12T08:18:29.944Z,98099.63
2022-09-12T08:20:56.307Z,98119.75
2022-09-12T08:23:22.577Z,98129.72
2022-09-12T08:25:48.907Z,98142.84
2022-09-12T08:28:15.168Z,98135.09
2022-09-12T08:30:42.049Z,98115.41
2022-09-12T08:33:08.378Z,98133.09
2022-09-12T08:35:34.714Z,98148.66
2022-09-12T08:38:01.080Z,98161.53
2022-09-12T08:40:27.437Z,98139.19
2022-09-12T08:42:56.745Z,98122.03
2022-09-12T08:45:23.424Z,98118.50
2022-09-12T08:47:49.799Z,98107.47
2022-09-12T08:50:16.184Z,98097.25
2022-09-12T08:52:42.474Z,98096.75
2022-09-12T08:55:08.726Z,98088.09
2022-09-12T08:57:35.201Z,98079.00
2022-09-12T09:00:01.466Z,98044.97
2022-09-12T09:02:30.249Z,98021.34
2022-09-12T09:04:56.580Z,97999.94
2022-09-12T09:07:23.270Z,98011.03
2022-09-12T09:09:49.535Z,97996.44
2022-09-12T09:12:16.241Z,97987.72
2022-09-12T09:14:42.514Z,97982.47
2022-09-12T09:17:09.301Z,97975.44
2022-09-12T09:19:35.639Z,97964.06
2022-09-12T09:22:02.112Z,97968.56
2022-09-12T09:24:28.378Z,97967.34
2022-09-12T09:26:54.659Z,97966.00
2022-09-12T09:29:20.992Z,97963.88
2022-09-12T09:31:47.535Z,97963.88
2022-09-12T09:34:14.994Z,97965.00
2022-09-12T09:36:41.961Z,97963.38
2022-09-12T09:39:08.286Z,97967.69
2022-09-12T09:41:34.773Z,97964.47
2022-09-12T09:44:01.227Z,97960.44
2022-09-12T09:46:27.701Z,97956.44
2022-09-12T09:48:54.570Z,97956.72
2022-09-12T09:51:21.005Z,97951.38
2022-09-12T09:53:47.384Z,97951.16
2022-09-12T09:56:13.828Z,97931.88
2022-09-12T09:58:40.400Z,97952.25
2022-09-12T10:01:06.796Z,97956.03
2022-09-12T10:03:38.047Z,97942.84
2022-09-12T10:06:05.393Z,97943.94
2022-09-12T10:08:31.777Z,97936.13
2022-09-12T10:10:58.212Z,97938.84
2022-09-12T10:13:24.476Z,97934.50
2022-09-12T10:15:50.778Z,97933.97
2022-09-12T10:18:17.127Z,97935.59
2022-09-12T10:20:43.479Z,97934.81
2022-09-12T10:23:09.819Z,97941.00
2022-09-12T10:25:36.148Z,97934.81
2022-09-12T10:28:02.442Z,97932.91
2022-09-12T10:30:28.984Z,97932.09
2022-09-12T10:32:58.319Z,97928.59
2022-09-12T10:35:24.744Z,97926.19
2022-09-12T10:37:52.340Z,97924.28
2022-09-12T10:40:18.921Z,97918.94
2022-09-12T10:42:46.003Z,97919.28
2022-09-12T10:45:12.369Z,97909.56
2022-09-12T10:47:38.748Z,97912.84
2022-09-12T10:50:05.088Z,97913.97
2022-09-12T10:52:32.657Z,97906.66
2022-09-12T10:54:59.132Z,97898.78
2022-09-12T10:57:26.091Z,97903.34
2022-09-12T10:59:52.438Z,97898.47
2022-09-12T11:02:18.812Z,97899.25
2022-09-12T11:04:45.321Z,97897.34
2022-09-12T11:07:11.594Z,97882.28
2022-09-12T11:09:37.904Z,97887.41
2022-09-12T11:12:04.308Z,97884.41
2022-09-12T11:14:30.564Z,97887.13
2022-09-12T11:16:56.956Z,97888.72
2022-09-12T11:19:23.228Z,97886.53
2022-09-12T11:21:49.504Z,97880.84
2022-09-12T11:24:15.760Z,97876.25
2022-09-12T11:26:42.090Z,97877.84
2022-09-12T11:29:08.478Z,97875.72
2022-09-12T11:31:34.810Z,97873.91
2022-09-12T11:34:01.150Z,97875.56
2022-09-12T11:36:27.592Z,97869.41
2022-09-12T11:38:54.007Z,97867.81
2022-09-12T11:41:20.373Z,97867.81
2022-09-12T11:43:46.834Z,97862.41
2022-09-12T11:46:13.307Z,97857.81
2022-09-12T11:48:39.633Z,97861.31
2022-09-12T11:51:06.345Z,97861.63
2022-09-12T11:53:32.613Z,97857.59
2022-09-12T11:55:58.912Z,97863.78
2022-09-12T11:58:25.142Z,97866.19
2022-09-12T12:00:51.385Z,97864.81
2022-09-12T12:03:17.706Z,97868.56
2022-09-12T12:05:44.300Z,97859.88
2022-09-12T12:08:10.604Z,97862.28
2022-09-12T12:10:37.252Z,97855.56
2022-09-12T12:13:03.525Z,97862.03
2022-09-12T12:15:29.789Z,97855.31
2022-09-12T12:17:56.374Z,97858.78
2022-09-12T12:20:22.653Z,97852.56
2022-09-12T12:22:49.337Z,97856.25
2022-09-12T12:25:20.824Z,97848.97
2022-09-12T12:27:48.317Z,97851.38
2022-09-12T12:30:14.684Z,97845.47
2022-09-12T12:32:40.918Z,97844.75
2022-09-12T12:35:07.306Z,97838.31
2022-09-12T12:37:33.757Z,97831.28
2022-09-12T12:40:00.225Z,97826.19
2022-09-12T12:42:26.634Z,97822.94
2022-09-12T12:44:53.068Z,97821.81
2022-09-12T12:47:19.585Z,97823.44
2022-09-12T12:49:45.938Z,97819.97
2022-09-12T12:52:12.429Z,97821.31
2022-09-12T12:54:38.953Z,97827.88
2022-09-12T12:57:05.220Z,97824.16
2022-09-12T12:59:31.529Z,97821.22
2022-09-12T13:01:57.918Z,97818.00
2022-09-12T13:04:24.380Z,97811.81
2022-09-12T13:06:50.686Z,97812.41
2022-09-12T13:09:16.992Z,97813.44
2022-09-12T13:11:43.366Z,97810.44
2022-09-12T13:14:09.641Z,97810.44
2022-09-12T13:16:35.972Z,97812.03
2022-09-12T13:19:02.235Z,97797.47
2022-09-12T13:21:28.600Z,97799.06
2022-09-12T13:23:54.858Z,97801.47
2022-09-12T13:26:21.184Z,97790.16
2022-09-12T13:28:47.679Z,97786.16
2022-09-12T13:31:14.236Z,97782.66
2022-09-12T13:33:40.692Z,97774.06
2022-09-12T13:36:06.959Z,97766.25
2022-09-12T13:38:33.536Z,97769.25
2022-09-12T13:40:59.987Z,97773.59
2022-09-12T13:43:26.685Z,97779.28
2022-09-12T13:45:53.120Z,97768.78
2022-09-12T13:48:19.537Z,97779.06
2022-09-12T13:50:46.674Z,97762.38
2022-09-12T13:53:13.535Z,97759.69
2022-09-12T13:55:39.899Z,97748.66
2022-09-12T13:58:06.143Z,97755.97
2022-09-12T14:00:32.807Z,97759.75
2022-09-12T14:02:59.522Z,97753.28
2022-09-12T14:05:26.395Z,97750.59
2022-09-12T14:07:52.748Z,97751.38
2022-09-12T14:10:19.457Z,97755.16
2022-09-12T14:12:45.743Z,97748.66
2022-09-12T14:15:12.044Z,97746.78
2022-09-12T14:17:38.708Z,97736.00
2022-09-12T14:20:05.134Z,97735.19
2022-09-12T14:22:31.554Z,97731.19
2022-09-12T14:24:57.800Z,97723.41
2022-09-12T14:27:24.427Z,97726.41
2022-09-12T14:29:50.788Z,97719.38
2022-09-12T14:32:17.176Z,97705.91
2022-09-12T14:34:43.517Z,97702.41
2022-09-12T14:37:09.805Z,97706.19
2022-09-12T14:39:36.393Z,97698.41
2022-09-12T14:42:02.777Z,97701.41
2022-09-12T14:44:29.049Z,97694.38
2022-09-12T14:46:55.433Z,97690.91
2022-09-12T14:49:21.683Z,97689.28
2022-09-12T14:51:51.155Z,97690.38
2022-09-12T14:54:19.118Z,97693.09
2022-09-12T14:56:45.341Z,97697.06
2022-09-12T14:59:11.649Z,97692.19
2022-09-12T15:01:38.090Z,97689.22
2022-09-12T15:04:04.600Z,97686.22
2022-09-12T15:06:31.002Z,97688.66
2022-09-12T15:08:57.301Z,97689.44
2022-09-12T15:11:23.547Z,97698.34
2022-09-12T15:13:49.943Z,97688.34
2022-09-12T15:16:16.263Z,97689.13
2022-09-12T15:18:42.692Z,97688.06
2022-09-12T15:21:09.081Z,97686.19
2022-09-12T15:23:35.353Z,97686.19
2022-09-12T15:26:01.658Z,97690.47
2022-09-12T15:28:28.071Z,97684.25
2022-09-12T15:30:54.459Z,97686.19
2022-09-12T15:33:20.759Z,97679.97
2022-09-12T15:35:48.260Z,97678.34
2022-09-12T15:38:14.542Z,97674.88
2022-09-12T15:40:41.065Z,97674.06
2022-09-12T15:43:07.329Z,97683.25
2022-09-12T15:48:17.307Z,97681.94
2022-09-12T15:50:43.579Z,97681.13
2022-09-12T15:53:10.289Z,97681.13
2022-09-12T15:55:36.709Z,97674.16
2022-09-12T15:58:07.247Z,97680.59
2022-09-12T16:00:36.007Z,97672.81
2022-09-12T16:03:02.335Z,97676.63
2022-09-12T16:05:28.715Z,97675.00
2022-09-12T16:07:55.170Z,97672.59
2022-09-12T16:10:21.613Z,97666.44
2022-09-12T16:12:47.850Z,97669.13
2022-09-12T16:15:14.181Z,97666.69
2022-09-12T16:17:40.480Z,97664.28
2022-09-12T16:20:06.924Z,97665.41
2022-09-12T16:22:33.354Z,97666.50
2022-09-12T16:24:59.636Z,97666.75
2022-09-12T16:27:26.157Z,97670.28
2022-09-12T16:29:52.480Z,97670.88
2022-09-12T16:32:18.771Z,97661.97
2022-09-12T16:34:45.460Z,97659.84
2022-09-12T16:37:11.720Z,97657.16
2022-09-12T16:39:38.283Z,97652.06
2022-09-12T16:42:07.806Z,97646.94
2022-09-12T16:44:34.073Z,97645.31
2022-09-12T16:47:00.493Z,97627.13
2022-09-12T16:49:26.883Z,97632.72
2022-09-12T16:51:53.248Z,97622.25
2022-09-12T16:54:19.634Z,97613.66
2022-09-12T16:56:46.630Z,97627.41
2022-09-12T16:59:12.952Z,97629.31
2022-09-12T17:01:39.491Z,97625.00
2022-09-12T17:04:05.789Z,97623.69
2022-09-12T17:06:32.487Z,97622.06
2022-09-12T17:08:58.875Z,97619.66
2022-09-12T17:11:25.768Z,97621.06
2022-09-12T17:14:07.861Z,97622.44
2022-09-12T17:16:34.473Z,97612.25
2022-09-12T17:19:00.791Z,97615.53
2022-09-12T17:21:27.153Z,97615.31
2022-09-12T17:26:20.004Z,97602.97
2022-09-12T17:28:46.402Z,97603.28
2022-09-12T17:31:12.715Z,97602.25
2022-09-12T17:33:39.008Z,97610.91
2022-09-12T17:36:05.261Z,97609.59
2022-09-12T17:38:31.533Z,97607.47
2022-09-12T17:40:59.946Z,97614.25
2022-09-12T17:43:26.631Z,97596.88
2022-09-12T17:45:52.935Z,97615.38
2022-09-12T17:48:19.347Z,97621.34
2022-09-12T17:50:45.700Z,97612.22
2022-09-12T17:53:12.497Z,97618.72
2022-09-12T17:55:38.971Z,97620.03
2022-09-12T17:58:05.253Z,97617.13
2022-09-12T18:00:31.549Z,97618.50
2022-09-12T18:02:57.872Z,97615.31
2022-09-12T18:05:24.255Z,97628.53
2022-09-12T18:07:50.520Z,97616.44
2022-09-12T18:10:16.864Z,97620.22
2022-09-12T18:12:43.363Z,97622.69
2022-09-12T18:15:09.733Z,97613.28
2022-09-12T18:17:36.081Z,97613.84
2022-09-12T18:20:02.417Z,97617.63
2022-09-12T18:22:28.835Z,97603.97
2022-09-12T18:24:55.502Z,97611.50
2022-09-12T18:27:22.316Z,97611.00
2022-09-12T18:29:59.089Z,97606.19
2022-09-12T18:32:34.958Z,97613.72
2022-09-12T18:35:01.646Z,97617.00
2022-09-12T18:37:28.026Z,97613.78
2022-09-12T18:39:54.361Z,97609.75
2022-09-12T18:42:21.010Z,97612.72
2022-09-12T18:44:47.670Z,97618.69
2022-09-12T18:47:14.171Z,97618.16
2022-09-12T18:49:40.691Z,97616.84
2022-09-12T18:52:07.715Z,97613.63
2022-09-12T18:54:34.563Z,97617.69
2022-09-12T18:57:02.813Z,97612.88
2022-09-12T18:59:29.517Z,97609.66
2022-09-12T19:01:55.809Z,97610.22
2022-09-12T19:04:22.908Z,97613.19
2022-09-12T19:06:50.469Z,97616.41
2022-09-12T19:09:16.975Z,97614.03
2022-09-12T19:11:43.254Z,97610.81
2022-09-12T19:14:09.673Z,97611.09
2022-09-12T19:16:37.188Z,97607.88
2022-09-12T19:19:03.616Z,97610.03
2022-09-12T19:21:29.932Z,97606.03
2022-09-12T19:23:56.431Z,97605.81
2022-09-12T19:26:22.716Z,97612.25
2022-09-12T19:28:49.808Z,97604.75
2022-09-12T19:31:16.488Z,97605.84
2022-09-12T19:33:42.955Z,97601.00
2022-09-12T19:36:22.194Z,97599.69
2022-09-12T19:38:55.995Z,97590.31
2022-09-12T19:41:22.564Z,97582.53
2022-09-12T19:43:49.300Z,97582.81
2022-09-12T19:46:16.072Z,97589.28
2022-09-12T19:48:42.579Z,97586.06
2022-09-12T19:51:09.336Z,97582.84
2022-09-12T19:53:37.039Z,97593.88
2022-09-12T19:56:03.537Z,97582.63
2022-09-12T19:58:29.954Z,97581.00
2022-09-12T20:00:56.525Z,97579.69
2022-09-12T20:03:23.028Z,97575.38
2022-09-12T20:05:49.352Z,97571.91
2022-09-12T20:08:17.087Z,97573.25
2022-09-12T20:10:43.396Z,97574.34
2022-09-12T20:13:10.069Z,97569.25
2022-09-12T20:15:36.405Z,97563.34
2022-09-12T20:18:02.710Z,97555.59
2022-09-12T20:20:28.969Z,97552.09
2022-09-12T20:22:55.617Z,97556.94
2022-09-12T20:25:21.881Z,97551.56
2022-09-12T20:27:48.380Z,97542.19
2022-09-12T20:30:14.878Z,97545.94
2022-09-12T20:32:41.210Z,97549.72
2022-09-12T20:35:07.520Z,97548.09
2022-09-12T20:37:33.892Z,97549.19
2022-09-12T20:40:00.527Z,97544.13
2022-09-12T20:42:26.944Z,97545.16
2022-09-12T20:44:53.498Z,97541.72
2022-09-12T20:47:19.861Z,97547.34
2022-09-12T20:49:46.496Z,97538.50
2022-09-12T20:52:12.822Z,97533.41
2022-09-12T20:54:39.409Z,97532.59
2022-09-12T20:57:05.762Z,97530.19
2022-09-12T20:59:32.147Z,97533.94
2022-09-12T21:01:58.529Z,97525.88
2022-09-12T21:04:24.889Z,97524.25
2022-09-12T21:06:51.305Z,97524.25
2022-09-12T21:09:17.673Z,97516.50
2022-09-12T21:11:47.000Z,97521.06
2022-09-12T21:14:13.275Z,97519.47
2022-09-12T21:16:39.564Z,97517.03
2022-09-12T21:19:05.850Z,97518.94
2022-09-12T21:21:32.492Z,97509.25
2022-09-12T21:23:58.737Z,97513.84
2022-09-12T21:26:24.984Z,97507.66
2022-09-12T21:28:51.255Z,97506.03
2022-09-12T21:31:17.764Z,97498.28
2022-09-12T21:33:44.079Z,97493.19
2022-09-12T21:36:10.567Z,97490.50
2022-09-12T21:38:36.984Z,97491.59
2022-09-12T21:41:03.482Z,97488.91
2022-09-12T21:43:29.842Z,97489.97
2022-09-12T21:45:56.076Z,97487.56
2022-09-12T21:48:22.513Z,97486.78
2022-09-12T21:50:48.901Z,97488.66
2022-09-12T21:53:15.323Z,97487.84
2022-09-12T21:55:41.612Z,97489.72
2022-09-12T21:58:07.877Z,97475.00
2022-09-12T22:00:34.684Z,97477.69
2022-09-12T22:03:01.071Z,97479.84
2022-09-12T22:05:27.748Z,97476.06
2022-09-12T22:07:54.106Z,97479.84
2022-09-12T22:10:20.439Z,97476.34
2022-09-12T22:12:47.256Z,97482.81
2022-09-12T22:15:38.874Z,97480.41
2022-09-12T22:17:59.889Z,97471.25
2022-09-12T22:20:26.285Z,97464.31
2022-09-12T22:22:52.530Z,97463.50
2022-09-12T22:25:19.110Z,97451.16
2022-09-12T22:27:45.438Z,97455.72
2022-09-12T22:30:11.787Z,97455.72
2022-09-12T22:32:38.486Z,97455.72
2022-09-12T22:35:04.703Z,97460.28
2022-09-12T22:37:31.051Z,97446.63
2022-09-12T22:39:57.421Z,97447.19
2022-09-12T22:42:23.705Z,97438.06
2022-09-12T22:44:50.027Z,97442.38
2022-09-12T22:47:16.343Z,97453.69
2022-09-12T22:49:42.625Z,97446.19
2022-09-12T22:52:08.956Z,97434.13
2022-09-12T22:54:35.210Z,97433.63
2022-09-12T22:57:01.486Z,97437.66
2022-09-12T22:59:27.748Z,97437.13
2022-09-12T23:01:54.085Z,97432.03
2022-09-12T23:04:20.697Z,97429.94
2022-09-12T23:06:47.072Z,97424.84
2022-09-12T23:09:13.300Z,97423.22
2022-09-12T23:11:39.555Z,97436.09
2022-09-12T23:14:06.079Z,97432.91
2022-09-12T23:16:32.488Z,97437.75
2022-09-12T23:19:04.926Z,97433.44
2022-09-12T23:21:31.335Z,97440.97
2022-09-12T23:23:57.750Z,97427.03
2022-09-12T23:26:24.027Z,97429.19
2022-09-12T23:28:50.327Z,97431.88
2022-09-12T23:31:19.666Z,97428.13
2022-09-12T23:33:45.968Z,97423.84
2022-09-12T23:36:12.700Z,97422.22
2022-09-12T23:38:38.988Z,97428.69
2022-09-12T23:41:05.362Z,97420.91
2022-09-12T23:43:31.744Z,97415.03
2022-09-12T23:45:58.509Z,97419.56
2022-09-12T23:48:24.900Z,97423.34
2022-09-12T23:50:51.385Z,97416.38
2022-09-12T23:53:17.643Z,97415.84
2022-09-12T23:55:43.946Z,97424.16
2022-09-12T23:58:10.612Z,97419.06
